createdAt,value
2023-04-12T00:00:18.037Z,8.20
2023-04-12T00:02:45.102Z,8.20
2023-04-12T00:05:12.344Z,8.20
2023-04-12T00:07:39.411Z,8.30
2023-04-12T00:10:08.008Z,8.30
2023-04-12T00:12:35.193Z,8.30
2023-04-12T00:15:02.102Z,8.30
2023-04-12T00:17:28.972Z,8.30
2023-04-12T00:19:56.199Z,8.30
2023-04-12T00:22:24.269Z,8.30
2023-04-12T00:24:51.268Z,8.20
2023-04-12T00:27:18.238Z,8.20
2023-04-12T00:29:45.108Z,8.20
2023-04-12T00:32:11.998Z,8.20
2023-04-12T00:34:38.969Z,8.10
2023-04-12T00:37:05.911Z,8.10
2023-04-12T00:39:32.798Z,8.00
2023-04-12T00:42:03.585Z,8.00
2023-04-12T00:44:31.128Z,7.90
2023-04-12T00:46:58.700Z,7.90
2023-04-12T00:49:31.007Z,7.90
2023-04-12T00:52:04.616Z,7.90
2023-04-12T00:54:32.884Z,7.90
2023-04-12T00:57:00.818Z,7.90
2023-04-12T00:59:28.259Z,7.90
2023-04-12T01:01:56.682Z,7.80
2023-04-12T01:04:26.534Z,7.80
2023-04-12T01:07:15.516Z,7.80
2023-04-12T01:09:45.562Z,7.80
2023-04-12T01:12:12.500Z,7.80
2023-04-12T01:14:39.377Z,7.80
2023-04-12T01:17:07.590Z,7.90
2023-04-12T01:19:46.825Z,7.90
2023-04-12T01:22:18.350Z,7.90
2023-04-12T01:24:54.561Z,7.90
2023-04-12T01:27:30.114Z,7.80
2023-04-12T01:29:58.283Z,7.80
2023-04-12T01:32:26.027Z,7.80
2023-04-12T01:34:53.686Z,7.70
2023-04-12T01:37:21.712Z,7.70
2023-04-12T01:42:33.568Z,7.60
2023-04-12T01:45:00.789Z,7.60
2023-04-12T01:47:27.918Z,7.50
2023-04-12T01:50:13.417Z,7.50
2023-04-12T01:52:45.381Z,7.50
2023-04-12T01:55:14.105Z,7.40
2023-04-12T01:57:43.117Z,7.40
2023-04-12T02:00:11.905Z,7.40
2023-04-12T02:02:40.200Z,7.30
2023-04-12T02:05:08.882Z,7.20
2023-04-12T02:07:36.171Z,7.20
2023-04-12T02:10:03.210Z,7.10
2023-04-12T02:12:30.531Z,7.00
2023-04-12T02:14:58.317Z,7.00
2023-04-12T02:17:25.287Z,7.00
2023-04-12T02:19:52.203Z,7.00
2023-04-12T02:22:19.152Z,7.00
2023-04-12T02:24:46.011Z,7.00
2023-04-12T02:27:12.854Z,7.00
2023-04-12T02:29:39.773Z,7.00
2023-04-12T02:32:06.635Z,7.00
2023-04-12T02:34:34.462Z,7.00
2023-04-12T02:37:01.573Z,7.00
2023-04-12T02:39:31.336Z,7.00
2023-04-12T02:41:58.276Z,7.00
2023-04-12T02:44:25.296Z,7.00
2023-04-12T02:46:52.260Z,7.00
2023-04-12T02:49:19.202Z,7.00
2023-04-12T02:51:46.412Z,7.00
2023-04-12T02:54:13.346Z,7.00
2023-04-12T02:56:40.758Z,7.10
2023-04-12T02:59:07.605Z,7.10
2023-04-12T03:01:34.900Z,7.00
2023-04-12T03:04:04.618Z,7.00
2023-04-12T03:06:32.221Z,7.00
2023-04-12T03:08:59.739Z,7.00
2023-04-12T03:11:26.814Z,7.10
2023-04-12T03:13:54.019Z,7.10
2023-04-12T03:16:26.108Z,7.20
2023-04-12T03:18:53.100Z,7.30
2023-04-12T03:21:19.967Z,7.30
2023-04-12T03:23:46.825Z,7.40
2023-04-12T03:26:13.918Z,7.40
2023-04-12T03:28:41.448Z,7.40
2023-04-12T03:31:08.481Z,7.40
2023-04-12T03:33:35.393Z,7.30
2023-04-12T03:36:02.339Z,7.10
2023-04-12T03:38:29.167Z,7.00
2023-04-12T03:40:56.096Z,7.00
2023-04-12T03:43:23.074Z,6.80
2023-04-12T03:45:50.077Z,6.80
2023-04-12T03:48:17.479Z,6.70
2023-04-12T03:50:44.696Z,6.60
2023-04-12T03:53:11.973Z,6.60
2023-04-12T03:55:38.920Z,6.60
2023-04-12T03:58:05.794Z,6.60
2023-04-12T04:00:32.738Z,6.60
2023-04-12T04:03:03.693Z,6.60
2023-04-12T04:05:31.448Z,6.50
2023-04-12T04:08:02.779Z,6.50
2023-04-12T04:10:29.856Z,6.50
2023-04-12T04:12:56.728Z,6.50
2023-04-12T04:15:25.160Z,6.50
2023-04-12T04:17:52.541Z,6.50
2023-04-12T04:20:20.348Z,6.50
2023-04-12T04:22:55.094Z,6.50
2023-04-12T04:25:22.088Z,6.50
2023-04-12T04:27:49.678Z,6.50
2023-04-12T04:30:17.077Z,6.40
2023-04-12T04:32:44.131Z,6.40
2023-04-12T04:35:11.481Z,6.40
2023-04-12T04:37:38.334Z,6.40
2023-04-12T04:40:12.090Z,6.30
2023-04-12T04:42:39.897Z,6.40
2023-04-12T04:45:13.789Z,6.40
2023-04-12T04:47:40.872Z,6.30
2023-04-12T04:50:08.097Z,6.30
2023-04-12T04:52:35.055Z,6.30
2023-04-12T04:55:04.030Z,6.30
2023-04-12T04:57:32.684Z,6.30
2023-04-12T04:59:59.490Z,6.30
2023-04-12T05:02:26.567Z,6.30
2023-04-12T05:04:56.504Z,6.30
2023-04-12T05:07:23.838Z,6.20
2023-04-12T05:09:50.750Z,6.20
2023-04-12T05:12:17.720Z,6.20
2023-04-12T05:14:48.036Z,6.20
2023-04-12T05:17:16.812Z,6.10
2023-04-12T05:19:45.161Z,6.10
2023-04-12T05:22:13.117Z,6.10
2023-04-12T05:24:40.096Z,6.20
2023-04-12T05:27:07.139Z,6.20
2023-04-12T05:29:34.055Z,6.20
2023-04-12T05:32:01.034Z,6.20
2023-04-12T05:34:27.895Z,6.20
2023-04-12T05:36:54.832Z,6.30
2023-04-12T05:39:21.854Z,6.40
2023-04-12T05:41:48.972Z,6.50
2023-04-12T05:44:16.223Z,6.50
2023-04-12T05:46:43.227Z,6.60
2023-04-12T05:49:10.267Z,6.70
2023-04-12T05:51:41.275Z,6.70
2023-04-12T05:54:09.300Z,6.80
2023-04-12T05:56:36.347Z,6.80
2023-04-12T05:59:04.867Z,6.90
2023-04-12T06:01:35.268Z,6.90
2023-04-12T06:04:06.351Z,7.00
2023-04-12T06:06:33.811Z,7.10
2023-04-12T06:09:01.361Z,7.10
2023-04-12T06:11:28.501Z,7.20
2023-04-12T06:13:55.772Z,7.30
2023-04-12T06:16:22.787Z,7.40
2023-04-12T06:18:49.735Z,7.50
2023-04-12T06:21:16.684Z,7.50
2023-04-12T06:23:45.518Z,7.60
2023-04-12T06:26:12.710Z,7.70
2023-04-12T06:28:39.660Z,7.70
2023-04-12T06:31:07.154Z,7.80
2023-04-12T06:33:34.213Z,7.80
2023-04-12T06:36:01.336Z,7.80
2023-04-12T06:38:28.327Z,7.90
2023-04-12T06:40:55.526Z,7.90
2023-04-12T06:43:23.090Z,7.90
2023-04-12T06:45:50.439Z,8.00
2023-04-12T06:48:17.432Z,8.00
2023-04-12T06:50:47.097Z,8.10
2023-04-12T06:53:14.016Z,8.10
2023-04-12T06:55:41.319Z,8.20
2023-04-12T06:58:08.250Z,8.30
2023-04-12T07:00:35.342Z,8.40
2023-04-12T07:03:02.370Z,8.40
2023-04-12T07:05:29.605Z,8.50
2023-04-12T07:07:56.549Z,8.60
2023-04-12T07:10:23.449Z,8.70
2023-04-12T07:12:52.261Z,8.70
2023-04-12T07:15:19.321Z,8.80
2023-04-12T07:17:46.333Z,8.80
2023-04-12T07:20:13.387Z,8.90
2023-04-12T07:22:40.525Z,9.00
2023-04-12T07:25:10.416Z,9.10
2023-04-12T07:27:37.343Z,9.20
2023-04-12T07:30:04.482Z,9.30
2023-04-12T07:32:31.552Z,9.40
2023-04-12T07:34:58.856Z,9.50
2023-04-12T07:37:25.730Z,9.50
2023-04-12T07:39:53.321Z,9.50
2023-04-12T07:42:20.503Z,9.60
2023-04-12T07:44:47.494Z,9.60
2023-04-12T07:47:14.398Z,9.60
2023-04-12T07:49:41.345Z,9.70
2023-04-12T07:52:08.534Z,9.70
2023-04-12T07:54:35.800Z,9.80
2023-04-12T07:57:03.865Z,9.80
2023-04-12T07:59:31.761Z,9.90
2023-04-12T08:01:58.667Z,10.00
2023-04-12T08:04:25.874Z,10.00
2023-04-12T08:06:52.881Z,10.10
2023-04-12T08:09:19.767Z,10.10
2023-04-12T08:11:47.471Z,10.20
2023-04-12T08:14:14.445Z,10.30
2023-04-12T08:16:41.396Z,10.40
2023-04-12T08:19:08.414Z,10.50
2023-04-12T08:21:35.322Z,10.60
2023-04-12T08:24:02.262Z,10.60
2023-04-12T08:26:30.092Z,10.70
2023-04-12T08:28:58.486Z,10.70
2023-04-12T08:31:25.434Z,10.80
2023-04-12T08:33:52.362Z,10.90
2023-04-12T08:36:19.351Z,10.90
2023-04-12T08:38:46.865Z,10.90
2023-04-12T08:41:14.815Z,11.00
2023-04-12T08:43:45.440Z,11.10
2023-04-12T08:46:15.831Z,11.20
2023-04-12T08:48:46.939Z,11.30
2023-04-12T08:51:15.057Z,11.40
2023-04-12T08:53:41.984Z,11.60
2023-04-12T08:56:11.587Z,11.70
2023-04-12T08:58:42.061Z,11.80
2023-04-12T09:01:12.268Z,12.00
2023-04-12T09:03:39.598Z,12.10
2023-04-12T09:06:06.981Z,12.30
2023-04-12T09:08:34.257Z,12.40
2023-04-12T09:11:01.178Z,12.50
2023-04-12T09:13:35.626Z,12.60
2023-04-12T09:16:03.238Z,12.70
2023-04-12T09:18:30.360Z,12.80
2023-04-12T09:21:07.813Z,12.90
2023-04-12T09:23:37.539Z,12.90
2023-04-12T09:26:04.605Z,13.00
2023-04-12T09:28:31.849Z,13.10
2023-04-12T09:30:59.355Z,13.20
2023-04-12T09:33:39.285Z,13.30
2023-04-12T09:36:09.351Z,13.30
2023-04-12T09:38:37.344Z,13.40
2023-04-12T09:41:26.413Z,13.50
2023-04-12T09:43:54.298Z,13.50
2023-04-12T09:46:21.280Z,13.50
2023-04-12T09:48:52.395Z,13.40
2023-04-12T09:51:29.859Z,13.40
2023-04-12T09:54:04.308Z,13.30
2023-04-12T09:56:32.559Z,13.20
2023-04-12T09:59:01.172Z,13.10
2023-04-12T10:01:29.265Z,13.10
2023-04-12T10:03:57.188Z,13.10
2023-04-12T10:06:26.725Z,13.10
2023-04-12T10:08:54.478Z,13.10
2023-04-12T10:11:21.402Z,13.10
2023-04-12T10:13:49.570Z,13.20
2023-04-12T10:16:16.822Z,13.30
2023-04-12T10:18:44.191Z,13.30
2023-04-12T10:21:11.949Z,13.30
2023-04-12T10:23:39.033Z,13.30
2023-04-12T10:26:06.077Z,13.30
2023-04-12T10:28:32.969Z,13.30
2023-04-12T10:31:00.138Z,13.40
2023-04-12T10:33:28.006Z,13.30
2023-04-12T10:35:59.721Z,13.30
2023-04-12T10:38:33.007Z,13.30
2023-04-12T10:41:18.069Z,13.30
2023-04-12T10:43:45.100Z,13.30
2023-04-12T10:46:46.975Z,13.40
2023-04-12T10:49:14.630Z,13.50
2023-04-12T10:52:10.930Z,13.60
2023-04-12T10:54:37.779Z,13.70
2023-04-12T10:57:04.943Z,13.70
2023-04-12T10:59:51.126Z,13.70
2023-04-12T11:02:18.450Z,13.70
2023-04-12T11:05:04.580Z,13.70
2023-04-12T11:07:42.004Z,13.80
2023-04-12T11:10:16.206Z,14.00
2023-04-12T11:12:57.571Z,14.20
2023-04-12T11:15:30.103Z,14.40
2023-04-12T11:17:58.015Z,14.70
2023-04-12T11:20:27.246Z,15.00
2023-04-12T11:22:55.068Z,15.20
2023-04-12T11:25:21.916Z,15.50
2023-04-12T11:27:52.928Z,15.70
2023-04-12T11:30:20.420Z,15.80
2023-04-12T11:32:47.917Z,15.90
2023-04-12T11:35:18.367Z,15.90
2023-04-12T11:37:45.884Z,16.00
2023-04-12T11:40:12.835Z,16.00
2023-04-12T11:42:39.848Z,16.00
2023-04-12T11:45:14.348Z,16.00
2023-04-12T11:47:44.868Z,16.00
2023-04-12T11:50:12.776Z,15.90
2023-04-12T11:52:42.440Z,15.80
2023-04-12T11:55:11.405Z,15.60
2023-04-12T11:57:39.183Z,15.40
2023-04-12T12:00:07.215Z,15.20
2023-04-12T12:02:43.160Z,15.00
2023-04-12T12:05:13.643Z,14.90
2023-04-12T12:07:41.171Z,14.80
2023-04-12T12:10:08.611Z,14.70
2023-04-12T12:12:35.752Z,14.60
2023-04-12T12:15:02.877Z,14.50
2023-04-12T12:17:29.905Z,14.50
2023-04-12T12:19:57.439Z,14.40
2023-04-12T12:22:24.408Z,14.40
2023-04-12T12:24:58.669Z,14.40
2023-04-12T12:27:36.041Z,14.40
2023-04-12T12:30:04.518Z,14.40
2023-04-12T12:32:35.758Z,14.40
2023-04-12T12:35:03.679Z,14.50
2023-04-12T12:37:31.137Z,14.50
2023-04-12T12:40:01.165Z,14.50
2023-04-12T12:42:29.281Z,14.50
2023-04-12T12:44:56.283Z,14.50
2023-04-12T12:47:23.444Z,14.50
2023-04-12T12:49:50.708Z,14.60
2023-04-12T12:52:18.091Z,14.60
2023-04-12T12:54:45.084Z,14.60
2023-04-12T12:57:12.227Z,14.60
2023-04-12T12:59:40.358Z,14.60
2023-04-12T13:02:07.900Z,14.50
2023-04-12T13:04:35.189Z,14.40
2023-04-12T13:07:02.318Z,14.40
2023-04-12T13:09:29.244Z,14.30
2023-04-12T13:11:57.857Z,14.30
2023-04-12T13:14:24.845Z,14.30
2023-04-12T13:16:51.958Z,14.30
2023-04-12T13:19:19.062Z,14.40
2023-04-12T13:21:46.047Z,14.40
2023-04-12T13:24:13.148Z,14.50
2023-04-12T13:26:42.765Z,14.60
2023-04-12T13:29:09.701Z,14.70
2023-04-12T13:31:36.796Z,14.80
2023-04-12T13:34:03.692Z,14.90
2023-04-12T13:36:31.356Z,14.90
2023-04-12T13:38:58.411Z,15.00
2023-04-12T13:41:26.060Z,14.90
2023-04-12T13:43:53.043Z,14.90
2023-04-12T13:46:20.266Z,14.80
2023-04-12T13:48:47.303Z,14.80
2023-04-12T13:51:14.584Z,14.70
2023-04-12T13:53:41.603Z,14.60
2023-04-12T13:56:08.729Z,14.50
2023-04-12T13:58:36.067Z,14.50
2023-04-12T14:01:03.395Z,14.40
2023-04-12T14:03:30.346Z,14.40
2023-04-12T14:05:57.690Z,14.40
2023-04-12T14:08:24.713Z,14.50
2023-04-12T14:10:51.704Z,14.60
2023-04-12T14:13:18.788Z,14.60
2023-04-12T14:15:45.862Z,14.60
2023-04-12T14:18:12.885Z,14.60
2023-04-12T14:20:40.147Z,14.60
2023-04-12T14:23:08.111Z,14.60
2023-04-12T14:25:37.200Z,14.60
2023-04-12T14:28:04.118Z,14.60
2023-04-12T14:30:31.367Z,14.60
2023-04-12T14:32:58.449Z,14.60
2023-04-12T14:35:25.573Z,14.60
2023-04-12T14:37:52.488Z,14.60
2023-04-12T14:40:19.503Z,14.70
2023-04-12T14:42:46.413Z,14.70
2023-04-12T14:45:13.480Z,14.70
2023-04-12T14:47:41.640Z,14.80
2023-04-12T14:50:08.835Z,14.90
2023-04-12T14:52:35.864Z,14.90
2023-04-12T14:55:02.784Z,15.00
2023-04-12T14:57:29.682Z,15.00
2023-04-12T14:59:57.098Z,15.00
2023-04-12T15:02:24.978Z,14.90
2023-04-12T15:04:52.076Z,14.90
2023-04-12T15:07:19.346Z,14.80
2023-04-12T15:09:46.169Z,14.80
2023-04-12T15:12:13.141Z,14.70
2023-04-12T15:14:41.191Z,14.70
2023-04-12T15:17:08.503Z,14.60
2023-04-12T15:19:35.828Z,14.60
2023-04-12T15:22:02.717Z,14.60
2023-04-12T15:24:31.108Z,14.50
2023-04-12T15:26:58.206Z,14.50
2023-04-12T15:29:27.768Z,14.50
2023-04-12T15:31:56.694Z,14.50
2023-04-12T15:34:25.331Z,14.50
2023-04-12T15:36:53.064Z,14.50
2023-04-12T15:39:20.214Z,14.50
2023-04-12T15:41:47.219Z,14.50
2023-04-12T15:44:14.346Z,14.50
2023-04-12T15:46:41.880Z,14.50
2023-04-12T15:49:09.760Z,14.50
2023-04-12T15:51:36.803Z,14.50
2023-04-12T15:54:05.487Z,14.50
2023-04-12T15:56:32.820Z,14.50
2023-04-12T15:59:01.288Z,14.50
2023-04-12T16:01:29.288Z,14.40
2023-04-12T16:03:56.531Z,14.40
2023-04-12T16:06:25.377Z,14.40
2023-04-12T16:08:53.855Z,14.30
2023-04-12T16:11:24.060Z,14.30
2023-04-12T16:13:51.841Z,14.30
2023-04-12T16:16:20.056Z,14.30
2023-04-12T16:18:47.600Z,14.20
2023-04-12T16:21:16.763Z,14.20
2023-04-12T16:23:44.715Z,14.20
2023-04-12T16:26:14.541Z,14.20
2023-04-12T16:28:44.192Z,14.20
2023-04-12T16:31:11.210Z,14.10
2023-04-12T16:33:38.200Z,14.10
2023-04-12T16:36:05.253Z,14.10
2023-04-12T16:38:34.046Z,14.10
2023-04-12T16:41:01.702Z,14.10
2023-04-12T16:43:28.564Z,14.00
2023-04-12T16:45:55.521Z,14.00
2023-04-12T16:48:22.999Z,13.90
2023-04-12T16:50:50.281Z,13.90
2023-04-12T16:53:17.247Z,13.90
2023-04-12T16:55:46.245Z,13.80
2023-04-12T16:58:14.531Z,13.80
2023-04-12T17:00:43.200Z,13.80
2023-04-12T17:03:11.775Z,13.70
2023-04-12T17:05:40.294Z,13.70
2023-04-12T17:08:10.151Z,13.70
2023-04-12T17:10:37.766Z,13.70
2023-04-12T17:13:05.137Z,13.60
2023-04-12T17:15:32.457Z,13.60
2023-04-12T17:18:05.277Z,13.60
2023-04-12T17:20:33.640Z,13.60
2023-04-12T17:23:00.962Z,13.60
2023-04-12T17:25:31.169Z,13.50
2023-04-12T17:28:03.245Z,13.50
2023-04-12T17:30:30.265Z,13.50
2023-04-12T17:32:58.351Z,13.50
2023-04-12T17:35:25.310Z,13.40
2023-04-12T17:37:52.231Z,13.40
2023-04-12T17:40:19.412Z,13.40
2023-04-12T17:42:46.388Z,13.40
2023-04-12T17:45:14.798Z,13.30
2023-04-12T17:47:42.761Z,13.30
2023-04-12T17:50:10.499Z,13.30
2023-04-12T17:52:37.459Z,13.30
2023-04-12T17:55:05.625Z,13.20
2023-04-12T17:57:32.874Z,13.20
2023-04-12T17:59:59.831Z,13.20
2023-04-12T18:02:27.610Z,13.10
2023-04-12T18:04:54.805Z,13.10
2023-04-12T18:07:21.808Z,13.10
2023-04-12T18:09:48.943Z,13.10
2023-04-12T18:12:16.043Z,13.10
2023-04-12T18:14:43.022Z,13.10
2023-04-12T18:17:10.535Z,13.00
2023-04-12T18:19:37.535Z,13.00
2023-04-12T18:22:05.302Z,12.90
2023-04-12T18:24:32.347Z,12.90
2023-04-12T18:26:59.474Z,12.80
2023-04-12T18:29:26.602Z,12.70
2023-04-12T18:31:55.379Z,12.70
2023-04-12T18:34:22.977Z,12.70
2023-04-12T18:36:49.990Z,12.60
2023-04-12T18:39:17.096Z,12.60
2023-04-12T18:41:44.008Z,12.60
2023-04-12T18:44:12.008Z,12.70
2023-04-12T18:46:42.273Z,12.60
2023-04-12T18:49:09.340Z,12.60
2023-04-12T18:51:36.633Z,12.60
2023-04-12T18:54:03.666Z,12.60
2023-04-12T18:56:30.689Z,12.60
2023-04-12T18:58:57.887Z,12.50
2023-04-12T19:01:25.407Z,12.50
2023-04-12T19:03:52.611Z,12.50
2023-04-12T19:06:20.306Z,12.50
2023-04-12T19:08:48.666Z,12.50
2023-04-12T19:11:16.079Z,12.50
2023-04-12T19:13:42.916Z,12.50
2023-04-12T19:16:11.214Z,12.50
2023-04-12T19:18:38.245Z,12.50
2023-04-12T19:23:49.995Z,12.40
2023-04-12T19:26:17.868Z,12.40
2023-04-12T19:28:47.298Z,12.40
2023-04-12T19:31:15.005Z,12.40
2023-04-12T19:33:42.552Z,12.30
2023-04-12T19:36:10.904Z,12.30
2023-04-12T19:38:41.509Z,12.30
2023-04-12T19:41:08.561Z,12.20
2023-04-12T19:43:35.754Z,12.20
2023-04-12T19:46:03.745Z,12.30
2023-04-12T19:48:31.296Z,12.30
2023-04-12T19:50:58.314Z,12.20
2023-04-12T19:53:26.060Z,12.20
2023-04-12T19:55:57.173Z,12.20
2023-04-12T19:58:25.182Z,12.20
2023-04-12T20:00:53.410Z,12.10
2023-04-12T20:03:20.788Z,12.20
2023-04-12T20:05:48.017Z,12.20
2023-04-12T20:08:16.141Z,12.10
2023-04-12T20:10:43.192Z,12.10
2023-04-12T20:13:15.306Z,12.10
2023-04-12T20:15:42.971Z,12.00
2023-04-12T20:18:11.447Z,12.10
2023-04-12T20:20:38.649Z,12.00
2023-04-12T20:23:05.600Z,12.00
2023-04-12T20:25:37.870Z,12.00
2023-04-12T20:28:04.972Z,12.00
2023-04-12T20:30:31.897Z,12.10
2023-04-12T20:33:01.126Z,12.10
2023-04-12T20:35:28.284Z,12.10
2023-04-12T20:37:56.578Z,12.10
2023-04-12T20:40:27.149Z,12.10
2023-04-12T20:42:54.274Z,12.20
2023-04-12T20:45:22.216Z,12.20
2023-04-12T20:47:49.423Z,12.20
2023-04-12T20:50:17.671Z,12.20
2023-04-12T20:52:45.602Z,12.20
2023-04-12T20:55:14.249Z,12.20
2023-04-12T20:57:41.265Z,12.20
2023-04-12T21:00:17.325Z,12.20
2023-04-12T21:02:45.840Z,12.20
2023-04-12T21:05:13.734Z,12.20
2023-04-12T21:07:41.710Z,12.20
2023-04-12T21:10:12.392Z,12.20
2023-04-12T21:12:40.063Z,12.20
2023-04-12T21:15:08.024Z,12.20
2023-04-12T21:17:41.734Z,12.10
2023-04-12T21:20:11.718Z,12.10
2023-04-12T21:22:38.701Z,12.10
2023-04-12T21:25:07.505Z,12.10
2023-04-12T21:27:35.510Z,12.20
2023-04-12T21:30:04.441Z,12.20
2023-04-12T21:32:32.630Z,12.10
2023-04-12T21:35:00.253Z,12.10
2023-04-12T21:37:27.177Z,12.10
2023-04-12T21:39:54.211Z,12.10
2023-04-12T21:42:21.155Z,12.10
2023-04-12T21:44:48.107Z,12.10
2023-04-12T21:47:15.474Z,12.10
2023-04-12T21:49:42.493Z,12.10
2023-04-12T21:52:09.364Z,12.10
2023-04-12T21:54:37.211Z,12.10
2023-04-12T21:57:04.220Z,12.10
2023-04-12T21:59:31.087Z,12.10
2023-04-12T22:01:58.163Z,12.10
2023-04-12T22:04:25.112Z,12.10
2023-04-12T22:06:52.734Z,12.10
2023-04-12T22:09:20.521Z,12.10
2023-04-12T22:11:49.195Z,12.10
2023-04-12T22:14:16.092Z,12.10
2023-04-12T22:16:43.167Z,12.10
2023-04-12T22:19:10.217Z,12.10
2023-04-12T22:21:37.512Z,12.10
2023-04-12T22:24:04.481Z,12.10
2023-04-12T22:26:31.673Z,12.10
2023-04-12T22:28:58.542Z,12.10
2023-04-12T22:31:26.276Z,12.10
2023-04-12T22:33:55.049Z,12.10
2023-04-12T22:36:22.222Z,12.10
2023-04-12T22:38:49.162Z,12.10
2023-04-12T22:41:16.553Z,12.10
2023-04-12T22:43:43.470Z,12.10
2023-04-12T22:46:16.335Z,12.10
2023-04-12T22:48:44.062Z,12.10
2023-04-12T22:51:11.150Z,12.10
2023-04-12T22:53:38.190Z,12.10
2023-04-12T22:56:05.302Z,12.10
2023-04-12T22:58:32.213Z,12.00
2023-04-12T23:00:59.102Z,12.00
2023-04-12T23:03:26.080Z,12.00
2023-04-12T23:05:53.093Z,12.00
2023-04-12T23:08:20.451Z,12.00
2023-04-12T23:10:47.349Z,12.00
2023-04-12T23:13:14.261Z,12.00
2023-04-12T23:15:41.674Z,12.00
2023-04-12T23:18:08.897Z,12.00
2023-04-12T23:20:35.898Z,12.00
2023-04-12T23:23:02.846Z,12.00
2023-04-12T23:25:41.457Z,12.00
2023-04-12T23:28:15.458Z,12.00
2023-04-12T23:30:43.822Z,11.90
2023-04-12T23:33:12.395Z,11.90
2023-04-12T23:35:41.256Z,11.90
2023-04-12T23:38:08.808Z,11.90
2023-04-12T23:40:35.678Z,11.90
2023-04-12T23:43:02.780Z,11.90
2023-04-12T23:45:29.947Z,11.90
2023-04-12T23:47:57.380Z,11.90
2023-04-12T23:50:24.625Z,11.90
2023-04-12T23:52:51.530Z,11.90
2023-04-12T23:55:18.513Z,11.90
2023-04-12T23:57:45.536Z,11.90
